Time;durP1;ratioP1;P1;durP2;ratioP2;P2;SDS_P1;SDS_P2;PMS_P1;PMS_P2;Temp;Humidity;BMP_temperature;BMP_pressure;BME280_temperature;BME280_humidity;BME280_pressure;Samples;Min_cycle;Max_cycle;Signal;HPM_P1;HPM_P2
2022/10/24 10:14:00;;;;;;;9.23;2.35;;;;;;;13.76;92.90;96356.84;2101560;27;20578;-69
2022/10/24 10:15:25;;;;;;;8.10;2.30;;;;;;;13.88;92.52;96382.34;2081667;28;20439;-69
2022/10/24 10:16:35;;;;;;;10.48;2.40;;;;;;;13.91;92.79;96386.56;2082258;28;20608;-69
2022/10/24 10:47:54;;;;;;;10.50;2.07;;;;;;;14.23;90.45;96411.75;2064987;27;1259976;-69
2022/10/24 10:49:22;;;;;;;5.40;2.67;;;;;;;14.22;89.56;96413.53;2107541;28;20444;-71
2022/10/24 11:29:01;;;;;;;6.82;2.00;;;;;;;14.41;87.60;96404.47;2084220;28;20560;-69
2022/10/24 11:30:02;;;;;;;9.48;4.03;;;;;;;14.46;87.61;96407.66;2071564;28;20346;-69
2022/10/24 11:31:17;;;;;;;5.75;2.30;;;;;;;14.45;87.80;96405.94;2069380;28;20612;-72
2022/10/24 11:47:24;;;;;;;8.18;1.63;;;;;;;14.46;87.04;96389.25;2102774;27;20572;-72
2022/10/24 11:49:08;;;;;;;14.48;2.47;;;;;;;14.54;87.40;96390.44;2098867;28;20200;-71
2022/10/24 12:35:48;;;;;;;14.27;3.08;;;;;;;15.06;85.61;96345.94;2083531;28;20566;-69
2022/10/24 12:37:10;;;;;;;13.65;1.80;;;;;;;15.10;84.98;96350.03;2080529;28;20319;-69
2022/10/24 12:38:27;;;;;;;4.93;1.75;;;;;;;15.10;84.67;96349.22;2079955;28;20193;-69
2022/10/24 12:39:31;;;;;;;5.95;1.65;;;;;;;15.13;84.73;96355.06;2078326;28;20282;-70
2022/10/24 12:40:50;;;;;;;6.20;1.95;;;;;;;15.26;84.48;96354.25;2073404;28;20288;-69
2022/10/24 12:41:54;;;;;;;9.10;2.08;;;;;;;15.30;84.45;96355.72;2072235;28;20289;-69
2022/10/24 12:42:55;;;;;;;5.90;2.20;;;;;;;15.31;83.92;96347.75;2071826;28;20289;-70
2022/10/24 12:44:36;;;;;;;5.03;1.55;;;;;;;15.37;83.78;96357.00;2074710;28;20205;-69
2022/10/24 12:45:38;;;;;;;7.18;1.92;;;;;;;15.38;83.65;96336.81;2074203;28;20273;-69
2022/10/24 12:46:39;;;;;;;6.47;1.90;;;;;;;15.50;83.23;96351.72;2074262;28;20771;-69
2022/10/24 12:47:42;;;;;;;12.77;1.52;;;;;;;15.53;83.53;96348.91;2071793;28;20597;-70
2022/10/24 12:49:06;;;;;;;10.80;2.03;;;;;;;15.52;82.95;96353.28;2071876;28;20241;-70
2022/10/24 12:50:20;;;;;;;10.10;2.22;;;;;;;15.66;83.20;96362.03;2069890;28;20235;-69
2022/10/24 12:51:36;;;;;;;9.77;1.73;;;;;;;15.57;82.66;96358.25;2072218;28;20301;-69
2022/10/24 12:52:37;;;;;;;9.90;1.60;;;;;;;15.70;82.49;96358.22;2070660;28;20221;-70
2022/10/24 12:53:59;;;;;;;12.52;1.98;;;;;;;15.73;82.42;96339.59;2072186;28;20856;-69
2022/10/24 12:55:35;;;;;;;10.00;1.70;;;;;;;15.77;81.89;96359.50;2070598;28;20230;-69
2022/10/24 12:56:48;;;;;;;11.13;3.60;;;;;;;15.64;81.94;96363.91;2071267;28;20298;-70
2022/10/24 12:57:50;;;;;;;7.72;2.08;;;;;;;15.59;82.66;96350.25;2074870;28;20288;-68
2022/10/24 12:59:16;;;;;;;4.93;1.75;;;;;;;15.65;82.22;96355.09;2072925;28;20720;-69
2022/10/24 13:11:00;;;;;;;3.38;1.60;;;;;;;15.96;81.60;96351.16;2101067;27;20582;-68
2022/10/24 13:12:41;;;;;;;3.95;2.20;;;;;;;16.16;80.34;96356.78;2095233;28;20220;-71
2022/10/24 13:14:01;;;;;;;7.65;1.67;;;;;;;16.12;80.64;96350.06;2094637;28;20207;-71
2022/10/24 13:15:19;;;;;;;7.68;1.70;;;;;;;16.07;80.52;96353.03;2090416;28;20299;-70
2022/10/24 13:16:33;;;;;;;7.15;1.77;;;;;;;15.99;80.83;96358.84;2087897;28;20228;-69
2022/10/24 13:17:40;;;;;;;9.77;2.63;;;;;;;15.88;80.71;96344.75;2087702;28;20230;-72
2022/10/24 13:18:56;;;;;;;8.73;2.40;;;;;;;15.85;80.78;96330.03;2090027;28;20253;-69
2022/10/24 13:20:15;;;;;;;5.80;1.90;;;;;;;16.17;80.49;96350.59;2089412;28;20842;-69
2022/10/24 13:21:23;;;;;;;11.23;2.10;;;;;;;16.05;80.14;96354.09;2097962;28;20264;-70
2022/10/24 13:22:28;;;;;;;5.88;1.90;;;;;;;15.98;80.93;96353.69;2098557;28;20197;-69
2022/10/24 13:23:32;;;;;;;7.47;2.00;;;;;;;16.14;80.33;96353.44;2086537;28;20281;-70
2022/10/24 13:24:39;;;;;;;15.50;3.08;;;;;;;16.17;80.25;96358.47;2087343;28;20364;-69
2022/10/24 13:31:05;;;;;;;7.97;3.03;;;;;;;16.19;80.84;96361.00;2086688;28;20223;-68
2022/10/24 13:32:06;;;;;;;7.47;1.95;;;;;;;16.07;80.41;96368.81;2090485;28;20660;-69
2022/10/24 13:33:30;;;;;;;4.93;2.10;;;;;;;15.95;80.77;96361.81;2088292;28;20696;-71
2022/10/24 13:34:53;;;;;;;8.18;2.97;;;;;;;15.91;81.37;96360.31;2085350;28;20259;-69
2022/10/24 13:36:07;;;;;;;6.68;2.03;;;;;;;15.95;81.13;96369.72;2089078;28;20556;-69
2022/10/24 13:37:09;;;;;;;21.15;2.70;;;;;;;15.95;80.99;96361.81;2085454;28;20196;-69
2022/10/24 13:38:13;;;;;;;6.55;1.80;;;;;;;15.88;81.15;96350.03;2087353;28;20231;-69
2022/10/24 13:39:19;;;;;;;5.80;1.98;;;;;;;15.86;81.25;96355.41;2088561;28;20219;-68
2022/10/24 13:40:32;;;;;;;5.88;1.73;;;;;;;15.95;81.33;96357.38;2089184;28;20200;-69
2022/10/24 13:41:37;;;;;;;14.05;3.15;;;;;;;15.89;80.69;96355.19;2090977;28;20280;-69
2022/10/24 13:42:52;;;;;;;4.95;2.30;;;;;;;15.88;80.54;96342.13;2087897;28;20213;-70
2022/10/24 13:43:59;;;;;;;22.80;2.50;;;;;;;15.99;80.08;96348.31;2089342;28;20283;-70
2022/10/24 13:45:05;;;;;;;9.30;2.00;;;;;;;15.95;80.51;96346.84;2087344;28;20221;-70
2022/10/24 13:46:09;;;;;;;9.13;1.85;;;;;;;16.17;79.81;96347.94;2089786;28;20196;-69
2022/10/24 13:47:40;;;;;;;6.75;1.70;;;;;;;16.28;79.05;96361.19;2088272;28;20232;-69
2022/10/24 13:48:47;;;;;;;22.38;2.38;;;;;;;16.05;79.59;96344.41;2090225;28;20220;-68
2022/10/24 13:49:56;;;;;;;8.65;2.33;;;;;;;16.35;79.46;96364.22;2084489;28;20254;-69
2022/10/24 13:51:22;;;;;;;8.15;2.17;;;;;;;16.60;78.54;96376.44;2086400;28;20204;-69
2022/10/24 13:52:35;;;;;;;6.63;1.80;;;;;;;16.70;78.32;96373.16;2096801;28;20205;-69
2022/10/24 13:53:49;;;;;;;23.63;2.63;;;;;;;16.59;78.49;96371.28;2096064;28;20199;-69
2022/10/24 13:55:11;;;;;;;9.77;2.17;;;;;;;16.44;79.17;96358.28;2090401;28;20239;-69
2022/10/24 13:56:13;;;;;;;8.77;2.03;;;;;;;16.45;78.72;96345.94;2087061;28;20197;-69
2022/10/24 13:57:27;;;;;;;10.40;2.47;;;;;;;16.65;78.77;96371.69;2084724;28;20763;-69
2022/10/24 13:58:38;;;;;;;13.35;2.65;;;;;;;16.72;77.94;96380.00;2084089;28;20210;-69
2022/10/24 13:59:43;;;;;;;9.05;1.90;;;;;;;16.67;77.57;96362.81;2091351;28;20225;-69
2022/10/24 14:07:35;;;;;;;15.68;2.20;;;;;;;17.08;75.59;96357.13;2086408;28;20189;-69
2022/10/24 14:08:43;;;;;;;4.70;1.90;;;;;;;17.28;75.86;96374.09;2084530;28;20764;-69
2022/10/24 14:10:05;;;;;;;12.95;6.85;;;;;;;17.29;75.78;96369.63;2090180;28;20240;-66
2022/10/24 14:11:13;;;;;;;5.32;1.75;;;;;;;17.70;75.22;96368.25;2100457;28;20658;-67
2022/10/24 14:12:23;;;;;;;14.35;4.68;;;;;;;18.22;73.48;96365.97;2099014;28;20691;-66
2022/10/24 14:20:10;;;;;;;4.07;1.70;;;;;;;18.72;69.75;96325.78;2087610;28;20224;-67
2022/10/24 14:21:21;;;;;;;5.82;1.80;;;;;;;19.13;69.02;96354.25;2085283;28;20209;-66
2022/10/24 14:22:33;;;;;;;4.40;1.50;;;;;;;19.34;67.70;96354.25;2081811;28;20194;-67
2022/10/24 14:23:39;;;;;;;5.97;1.35;;;;;;;19.02;68.91;96360.44;2081819;28;20843;-67
2022/10/24 14:24:42;;;;;;;5.65;1.90;;;;;;;19.23;68.69;96365.75;2084500;28;20776;-67
2022/10/24 14:25:45;;;;;;;3.80;1.30;;;;;;;19.05;68.70;96362.84;2081195;28;20213;-67
2022/10/24 14:26:50;;;;;;;4.15;1.13;;;;;;;18.93;68.65;96351.47;2082675;28;20284;-68
2022/10/24 14:28:00;;;;;;;3.88;1.17;;;;;;;18.66;70.21;96365.13;2082380;28;20672;-67
2022/10/24 14:29:02;;;;;;;5.57;1.50;;;;;;;18.79;70.00;96349.91;2082667;28;20228;-67
2022/10/24 14:30:04;;;;;;;5.60;1.42;;;;;;;18.70;69.88;96348.91;2082798;28;20309;-66
2022/10/24 14:31:18;;;;;;;2.25;1.30;;;;;;;18.87;69.21;96351.97;2080266;28;20275;-67
2022/10/24 14:32:19;;;;;;;3.55;1.23;;;;;;;19.12;67.97;96344.63;2078545;28;21085;-66
2022/10/24 14:33:22;;;;;;;7.63;1.55;;;;;;;18.97;68.56;96358.19;2083715;28;20204;-66
2022/10/24 14:34:24;;;;;;;5.60;1.40;;;;;;;19.32;67.62;96359.66;2079757;28;20277;-66
2022/10/24 14:35:26;;;;;;;2.50;1.40;;;;;;;19.30;67.44;96364.28;2080084;28;20226;-67
2022/10/24 14:36:30;;;;;;;3.95;1.55;;;;;;;19.19;66.87;96345.81;2083261;28;20316;-67
2022/10/24 14:37:34;;;;;;;6.63;1.42;;;;;;;19.07;67.18;96345.00;2083060;28;20190;-66
2022/10/24 14:38:36;;;;;;;6.45;1.55;;;;;;;19.05;67.74;96370.78;2083639;28;20232;-66
2022/10/24 14:39:38;;;;;;;5.95;1.40;;;;;;;18.96;68.01;96364.44;2083091;28;20232;-66
2022/10/24 14:40:42;;;;;;;5.47;1.50;;;;;;;19.09;67.47;96362.44;2079202;28;20222;-67
2022/10/24 14:41:43;;;;;;;3.65;1.30;;;;;;;18.89;68.21;96368.53;2076401;28;20201;-66
2022/10/24 14:42:46;;;;;;;4.07;1.42;;;;;;;18.90;67.97;96363.13;2078681;28;20240;-66
2022/10/24 14:43:47;;;;;;;5.88;1.60;;;;;;;18.92;68.29;96370.97;2079723;28;20668;-66
2022/10/24 14:44:50;;;;;;;9.95;1.50;;;;;;;18.70;68.91;96375.34;2082636;28;20312;-66
2022/10/24 14:46:11;;;;;;;3.25;1.40;;;;;;;18.44;69.35;96391.50;2083535;28;20206;-66
2022/10/24 14:47:28;;;;;;;5.43;1.45;;;;;;;18.18;69.79;96392.75;2077515;28;20664;-66
2022/10/24 14:48:29;;;;;;;6.85;1.80;;;;;;;18.21;69.55;96382.78;2079762;28;20285;-68
2022/10/24 14:49:35;;;;;;;9.15;1.30;;;;;;;18.08;70.40;96379.44;2077019;28;20332;-67
2022/10/24 14:50:46;;;;;;;11.05;1.60;;;;;;;17.75;71.60;96376.66;2084778;28;20304;-67
2022/10/24 14:51:51;;;;;;;11.63;1.45;;;;;;;17.97;70.57;96364.44;2087383;28;20288;-66
2022/10/24 14:52:53;;;;;;;4.30;1.52;;;;;;;18.17;70.65;96377.84;2085999;28;20584;-67
2022/10/24 14:53:56;;;;;;;4.40;1.40;;;;;;;18.19;69.86;96373.31;2082105;28;20207;-66
2022/10/24 14:55:01;;;;;;;5.15;1.60;;;;;;;18.03;70.38;96376.31;2079430;28;20264;-66
2022/10/24 14:56:15;;;;;;;8.85;2.25;;;;;;;18.21;70.27;96371.38;2077416;28;20203;-66
2022/10/24 14:57:19;;;;;;;11.88;1.90;;;;;;;18.13;70.01;96377.25;2078110;28;20575;-66
2022/10/24 14:58:24;;;;;;;6.55;1.35;;;;;;;17.98;70.73;96360.84;2080049;28;20936;-66
2022/10/24 14:59:34;;;;;;;8.77;1.70;;;;;;;18.31;70.10;96376.75;2075503;28;20220;-66
2022/10/24 15:00:38;;;;;;;4.80;1.42;;;;;;;17.92;69.83;96366.56;2079505;28;20280;-66
2022/10/24 15:01:39;;;;;;;3.60;1.45;;;;;;;17.98;70.76;96381.97;2080595;28;20577;-66
2022/10/24 15:02:41;;;;;;;7.28;1.67;;;;;;;17.97;69.65;96364.44;2078325;28;20210;-67
2022/10/24 15:03:57;;;;;;;6.40;1.75;;;;;;;18.03;69.69;96366.59;2079785;28;20202;-67
2022/10/24 15:05:17;;;;;;;5.40;1.60;;;;;;;17.82;70.05;96373.53;2075716;28;20230;-67
2022/10/24 15:06:25;;;;;;;5.38;1.40;;;;;;;17.85;70.19;96353.03;2079847;28;20194;-67
2022/10/24 15:14:02;;;;;;;12.98;1.45;;;;;;;17.70;70.86;96378.81;2082253;28;20235;-66
2022/10/24 15:15:28;;;;;;;5.75;1.73;;;;;;;17.91;70.19;96383.38;2084695;28;20228;-66
2022/10/24 15:16:38;;;;;;;5.10;1.60;;;;;;;17.72;71.00;96381.34;2082265;28;20259;-66
2022/10/24 15:17:39;;;;;;;3.58;1.50;;;;;;;17.85;70.21;96379.44;2081259;28;20629;-67
2022/10/24 15:18:42;;;;;;;4.45;1.40;;;;;;;17.60;70.98;96356.75;2080702;28;20857;-66
2022/10/24 15:25:04;;;;;;;5.90;1.63;;;;;;;16.48;74.70;96379.97;2080347;28;20624;-67
2022/10/24 15:26:45;;;;;;;14.13;1.60;;;;;;;16.25;75.88;96384.28;2084407;28;20219;-67
2022/10/24 15:27:46;;;;;;;5.68;1.60;;;;;;;15.95;76.61;96367.09;2065240;28;20290;-67
2022/10/24 15:29:04;;;;;;;3.83;1.50;;;;;;;15.89;77.40;96391.22;2058741;28;20643;-67
2022/10/24 15:30:18;;;;;;;14.52;1.60;;;;;;;15.79;77.89;96372.53;2061559;28;20282;-67
2022/10/24 15:31:21;;;;;;;11.07;1.90;;;;;;;15.73;78.02;96392.25;2055200;28;20303;-67
2022/10/24 15:32:23;;;;;;;2.88;1.45;;;;;;;15.47;79.39;96383.53;2054459;28;20207;-66
2022/10/24 15:33:24;;;;;;;5.00;1.88;;;;;;;15.47;79.23;96389.63;2065164;28;20722;-67
2022/10/24 15:34:26;;;;;;;3.05;1.17;;;;;;;15.36;79.75;96392.13;2063867;28;20301;-66
2022/10/24 15:35:32;;;;;;;9.68;1.60;;;;;;;15.43;79.68;96389.94;2067959;28;20233;-67
2022/10/24 15:36:38;;;;;;;5.88;1.67;;;;;;;15.23;80.67;96397.38;2066532;28;20669;-67
2022/10/24 15:37:50;;;;;;;3.35;1.20;;;;;;;15.28;80.01;96397.91;2066615;28;20210;-67
2022/10/24 15:38:57;;;;;;;7.25;1.83;;;;;;;15.22;80.56;96400.13;2066281;28;20206;-67
2022/10/24 15:40:06;;;;;;;4.88;1.55;;;;;;;15.22;80.45;96403.59;2064319;28;20255;-66
2022/10/24 15:41:08;;;;;;;3.58;1.25;;;;;;;15.14;80.90;96396.22;2066796;28;20205;-66
2022/10/24 15:42:10;;;;;;;5.45;1.55;;;;;;;15.14;80.96;96393.59;2067172;28;20211;-66
2022/10/24 15:43:12;;;;;;;7.80;1.70;;;;;;;15.12;80.84;96390.22;2065937;28;20227;-67
2022/10/24 15:44:25;;;;;;;5.93;1.90;;;;;;;15.18;80.88;96394.22;2059188;28;20768;-67
2022/10/24 15:45:27;;;;;;;3.15;1.67;;;;;;;15.10;81.78;96389.47;2057374;28;20204;-66
2022/10/24 15:46:29;;;;;;;3.85;1.75;;;;;;;15.09;81.41;96371.19;2059276;28;20255;-66
2022/10/24 15:47:30;;;;;;;4.97;1.95;;;;;;;15.10;81.48;96381.59;2058319;28;20239;-67
2022/10/24 15:48:32;;;;;;;6.95;1.92;;;;;;;14.82;81.97;96359.78;2068705;28;20249;-67
2022/10/24 16:01:04;;;;;;;6.38;1.55;;;;;;;14.72;83.48;96395.50;2077890;28;20202;-72
2022/10/24 16:02:17;;;;;;;5.80;1.60;;;;;;;14.76;83.72;96398.75;2081267;28;20241;-67
2022/10/24 16:03:22;;;;;;;6.30;1.85;;;;;;;14.76;83.20;96402.22;2082771;28;20699;-70
2022/10/24 16:04:26;;;;;;;6.28;1.75;;;;;;;14.72;83.85;96402.53;2082166;28;20198;-69
2022/10/24 16:05:32;;;;;;;3.95;1.40;;;;;;;14.70;83.33;96400.00;2084560;28;20229;-70
2022/10/24 16:06:34;;;;;;;4.68;1.40;;;;;;;14.59;85.04;96395.41;2080803;28;20286;-69
2022/10/24 16:07:35;;;;;;;3.33;1.25;;;;;;;14.54;85.02;96389.63;2080914;28;20730;-70
2022/10/24 16:08:36;;;;;;;5.38;1.75;;;;;;;14.59;85.19;96403.31;2079472;28;20893;-69
2022/10/24 16:09:42;;;;;;;4.55;1.40;;;;;;;14.49;85.96;96420.59;2080202;28;20309;-69
2022/10/24 16:10:44;;;;;;;7.50;1.80;;;;;;;14.21;86.75;96380.34;2080133;28;20597;-71
2022/10/24 16:11:46;;;;;;;5.80;1.88;;;;;;;14.23;87.98;96402.06;2085433;28;20251;-68
2022/10/24 16:12:49;;;;;;;4.57;1.60;;;;;;;14.18;88.27;96407.63;2081100;28;20830;-69
2022/10/24 16:13:50;;;;;;;4.63;1.80;;;;;;;14.23;88.25;96411.75;2075348;28;20234;-69
2022/10/24 16:14:52;;;;;;;6.10;1.65;;;;;;;14.12;89.48;96410.63;2078867;28;20277;-68
2022/10/24 16:15:53;;;;;;;10.35;1.60;;;;;;;14.03;90.56;96409.44;2082586;28;20317;-68
2022/10/24 16:16:55;;;;;;;6.82;1.50;;;;;;;14.00;91.37;96414.03;2080365;28;20284;-68
2022/10/24 16:17:58;;;;;;;3.45;1.80;;;;;;;13.96;91.20;96416.00;2080028;28;20285;-70
2022/10/24 16:19:00;;;;;;;6.32;1.50;;;;;;;13.95;91.42;96424.78;2081188;28;20243;-71
2022/10/24 16:31:23;;;;;;;7.88;1.45;;;;;;;13.50;90.99;96438.00;2081703;28;20617;-69
2022/10/24 16:32:24;;;;;;;41.97;22.17;;;;;;;13.54;92.45;96452.63;2083311;28;20262;-71
2022/10/24 16:33:26;;;;;;;7.72;3.05;;;;;;;13.54;93.10;96452.63;2083443;28;20633;-68
2022/10/24 16:34:27;;;;;;;8.55;3.15;;;;;;;13.47;94.42;96443.44;2078799;28;20281;-65
2022/10/24 16:35:32;;;;;;;5.57;2.03;;;;;;;13.46;94.51;96461.88;2075960;28;20281;-62
2022/10/24 16:36:33;;;;;;;8.88;2.65;;;;;;;13.33;95.98;96467.84;2077734;28;20233;-61
